Terminal Aerodrome Forecast
Issued by NWS Tulsa, OK

Home | Current Version | Previous Version | Text Only | Print | Product List | Glossary On
Versions: 1 2 3 4 5 6 7 8 9 10 11 12 13 14 15 16 17 18 19 20
000
FTUS44 KTSA 202335
TAFTUL
TAF
KTUL 202335Z 2100/2124 19009KT P6SM BKN120
     FM210200 21003KT P6SM SKC
     FM210600 31003KT 4SM BR SKC
     FM211400 34008KT P6SM SKC=

USA.gov is the U.S. government's official web portal to all federal, state and local government web resources and services.